createdAt,value
2022-10-17T00:03:03.824Z,11.47
2022-10-17T00:05:33.630Z,11.77
2022-10-17T00:12:01.208Z,11.00
2022-10-17T00:18:22.547Z,11.55
2022-10-17T00:20:52.356Z,11.54
2022-10-17T00:23:25.549Z,11.48
2022-10-17T00:25:59.762Z,12.36
2022-10-17T00:32:03.796Z,12.40
2022-10-17T00:37:50.626Z,10.45
2022-10-17T00:44:27.826Z,11.19
2022-10-17T00:47:20.073Z,11.40
2022-10-17T00:53:31.262Z,10.64
2022-10-17T00:58:57.527Z,10.53
2022-10-17T01:04:52.943Z,11.33
2022-10-17T01:07:42.718Z,11.26
2022-10-17T01:10:40.075Z,11.09
2022-10-17T01:13:13.982Z,10.80
2022-10-17T01:19:07.872Z,9.88
2022-10-17T01:25:14.776Z,10.52
2022-10-17T01:31:40.508Z,11.16
2022-10-17T01:34:15.034Z,10.79
2022-10-17T01:40:25.926Z,9.43
2022-10-17T01:46:17.249Z,9.47
2022-10-17T01:49:10.310Z,10.47
2022-10-17T01:54:54.683Z,9.67
2022-10-17T02:01:04.807Z,10.28
2022-10-17T02:06:50.252Z,10.28
2022-10-17T02:09:38.796Z,10.45
2022-10-17T02:12:42.714Z,9.13
2022-10-17T02:15:40.682Z,8.85
2022-10-17T02:21:55.875Z,10.42
2022-10-17T02:27:48.949Z,9.22
2022-10-17T02:30:29.811Z,9.67
2022-10-17T02:36:26.274Z,8.90
2022-10-17T02:42:33.477Z,9.00
2022-10-17T02:48:38.020Z,9.57
2022-10-17T02:51:12.333Z,10.46
2022-10-17T02:53:51.569Z,9.70
2022-10-17T02:56:49.118Z,9.40
2022-10-17T03:02:58.382Z,10.38
2022-10-17T03:08:54.015Z,9.66
2022-10-17T03:11:21.674Z,10.29
2022-10-17T03:13:49.744Z,10.14
2022-10-17T03:16:37.681Z,9.58
2022-10-17T03:19:27.255Z,9.04
2022-10-17T03:22:23.790Z,8.83
2022-10-17T03:24:51.454Z,8.19
2022-10-17T03:27:39.597Z,7.90
2022-10-17T03:30:28.245Z,8.71
2022-10-17T03:32:57.543Z,9.01
2022-10-17T03:38:19.798Z,8.58
2022-10-17T03:44:04.475Z,8.81
2022-10-17T03:46:53.635Z,8.32
2022-10-17T03:49:41.574Z,7.63
2022-10-17T03:55:27.992Z,8.97
2022-10-17T04:01:44.970Z,7.72
2022-10-17T04:04:16.373Z,9.02
2022-10-17T04:10:20.811Z,9.33
2022-10-17T04:16:18.906Z,8.79
2022-10-17T04:22:36.559Z,8.36
2022-10-17T04:25:04.725Z,8.66
2022-10-17T04:27:52.860Z,8.86
2022-10-17T04:30:21.961Z,8.34
2022-10-17T04:32:51.363Z,8.50
2022-10-17T04:35:19.226Z,8.46
2022-10-17T04:38:07.368Z,7.61
2022-10-17T04:40:37.886Z,7.28
2022-10-17T04:46:22.472Z,6.70
2022-10-17T04:49:12.452Z,7.03
2022-10-17T04:51:40.115Z,6.94
2022-10-17T04:57:36.258Z,6.58
2022-10-17T05:04:01.389Z,6.58
2022-10-17T05:06:50.755Z,7.10
2022-10-17T05:09:39.100Z,7.61
2022-10-17T05:12:09.568Z,7.06
2022-10-17T05:18:07.512Z,7.58
2022-10-17T05:20:37.633Z,8.83
2022-10-17T05:26:25.589Z,7.20
2022-10-17T05:32:30.613Z,6.77
2022-10-17T05:37:50.842Z,6.53
2022-10-17T05:43:57.807Z,6.85
2022-10-17T05:46:50.286Z,5.90
2022-10-17T05:52:36.396Z,5.54
2022-10-17T05:58:22.515Z,6.84
2022-10-17T06:04:38.520Z,6.73
2022-10-17T06:10:43.164Z,6.49
2022-10-17T06:13:10.926Z,6.95
2022-10-17T06:15:38.690Z,7.87
2022-10-17T06:18:26.932Z,8.74
2022-10-17T06:24:36.701Z,7.04
2022-10-17T06:33:21.275Z,6.55
2022-10-17T06:35:53.970Z,5.41
2022-10-17T06:38:22.924Z,5.22
2022-10-17T06:40:51.443Z,5.48
2022-10-17T06:43:23.198Z,5.85
2022-10-17T06:48:23.557Z,7.45
2022-10-17T06:50:52.120Z,6.72
2022-10-17T06:53:20.363Z,6.73
2022-10-17T06:55:53.177Z,6.50
2022-10-17T06:58:21.688Z,5.28
2022-10-17T07:00:49.479Z,4.44
2022-10-17T07:03:18.366Z,4.96
2022-10-17T07:05:53.050Z,5.17
2022-10-17T07:08:20.848Z,5.08
2022-10-17T07:11:22.642Z,5.95
2022-10-17T07:13:52.377Z,6.82
2022-10-17T07:16:29.507Z,6.75
2022-10-17T07:18:56.650Z,7.01
2022-10-17T07:21:25.662Z,6.73
2022-10-17T07:23:55.780Z,6.42
2022-10-17T07:26:23.945Z,5.93
2022-10-17T07:28:54.528Z,7.36
2022-10-17T07:31:23.238Z,7.21
2022-10-17T07:33:50.727Z,6.78
2022-10-17T07:36:23.865Z,7.50
2022-10-17T07:38:50.684Z,7.30
2022-10-17T07:41:21.816Z,7.55
2022-10-17T07:43:50.541Z,8.03
2022-10-17T07:46:20.134Z,7.41
2022-10-17T07:48:48.894Z,8.10
2022-10-17T07:51:15.908Z,8.05
2022-10-17T07:53:45.125Z,8.63
2022-10-17T07:56:16.016Z,8.21
2022-10-17T07:58:43.144Z,8.53
2022-10-17T08:01:14.954Z,7.99
2022-10-17T08:03:43.899Z,9.62
2022-10-17T08:06:11.043Z,8.46
2022-10-17T08:08:37.858Z,8.30
2022-10-17T08:11:08.410Z,9.31
2022-10-17T08:13:35.985Z,10.25
2022-10-17T08:16:05.581Z,9.07
2022-10-17T08:18:35.008Z,8.46
2022-10-17T08:21:03.000Z,8.48
2022-10-17T08:23:35.580Z,8.31
2022-10-17T08:26:04.266Z,7.41
2022-10-17T08:28:35.441Z,7.12
2022-10-17T08:31:05.407Z,6.95
2022-10-17T08:33:34.593Z,6.73
2022-10-17T08:36:06.744Z,6.30
2022-10-17T08:38:35.947Z,6.42
2022-10-17T08:41:07.177Z,6.34
2022-10-17T08:43:57.760Z,6.02
2022-10-17T08:46:34.143Z,5.98
2022-10-17T08:49:05.074Z,5.91
2022-10-17T08:51:39.833Z,6.12
2022-10-17T08:54:15.128Z,6.39
2022-10-17T08:56:48.862Z,6.33
2022-10-17T08:59:23.872Z,7.09
2022-10-17T09:02:01.442Z,6.99
2022-10-17T09:04:52.436Z,7.50
2022-10-17T09:07:28.522Z,6.68
2022-10-17T09:10:05.427Z,8.45
2022-10-17T09:12:42.014Z,8.49
2022-10-17T09:15:29.508Z,7.89
2022-10-17T09:18:00.978Z,7.31
2022-10-17T09:20:33.802Z,7.54
2022-10-17T09:23:07.131Z,6.92
2022-10-17T09:25:42.616Z,7.65
2022-10-17T09:28:14.429Z,7.99
2022-10-17T09:30:45.998Z,6.79
2022-10-17T09:33:28.201Z,6.73
2022-10-17T09:36:05.814Z,7.09
2022-10-17T09:38:42.265Z,7.22
2022-10-17T09:41:43.098Z,6.29
2022-10-17T09:44:14.793Z,6.14
2022-10-17T09:46:53.868Z,7.16
2022-10-17T09:49:26.136Z,6.78
2022-10-17T09:51:53.664Z,6.34
2022-10-17T09:54:25.057Z,5.80
2022-10-17T09:57:00.682Z,6.03
2022-10-17T09:59:32.901Z,5.83
2022-10-17T10:02:17.515Z,6.96
2022-10-17T10:05:07.426Z,6.19
2022-10-17T10:07:38.150Z,6.24
2022-10-17T10:10:23.234Z,6.39
2022-10-17T10:13:03.582Z,6.57
2022-10-17T10:15:35.572Z,6.11
2022-10-17T10:18:03.623Z,5.83
2022-10-17T10:20:34.790Z,7.19
2022-10-17T10:23:11.910Z,7.41
2022-10-17T10:25:56.214Z,6.37
2022-10-17T10:28:28.519Z,6.34
2022-10-17T10:30:57.492Z,5.75
2022-10-17T10:33:29.662Z,5.90
2022-10-17T10:36:01.279Z,5.66
2022-10-17T10:38:33.622Z,5.82
2022-10-17T10:41:05.468Z,6.33
2022-10-17T10:43:36.488Z,5.55
2022-10-17T10:46:06.972Z,5.51
2022-10-17T10:48:37.180Z,5.48
2022-10-17T10:51:08.637Z,5.94
2022-10-17T10:53:48.483Z,6.75
2022-10-17T10:56:20.609Z,6.68
2022-10-17T10:58:56.677Z,6.62
2022-10-17T11:01:31.866Z,6.58
2022-10-17T11:04:23.575Z,6.01
2022-10-17T11:06:55.442Z,6.68
2022-10-17T11:09:34.946Z,6.80
2022-10-17T11:12:07.876Z,6.09
2022-10-17T11:14:44.387Z,6.30
2022-10-17T11:17:21.699Z,5.85
2022-10-17T11:20:00.381Z,6.36
2022-10-17T11:22:31.238Z,5.86
2022-10-17T11:25:03.732Z,5.87
2022-10-17T11:27:33.939Z,6.72
2022-10-17T11:30:01.898Z,6.78
2022-10-17T11:32:34.801Z,6.91
2022-10-17T11:35:07.465Z,6.68
2022-10-17T11:37:39.507Z,6.41
2022-10-17T11:40:21.972Z,6.93
2022-10-17T11:43:11.112Z,7.17
2022-10-17T11:45:44.688Z,7.71
2022-10-17T11:48:17.297Z,7.74
2022-10-17T11:53:58.787Z,7.57
2022-10-17T11:56:32.742Z,7.81
2022-10-17T11:59:20.589Z,8.75
2022-10-17T12:01:52.835Z,8.62
2022-10-17T12:04:39.255Z,8.56
2022-10-17T12:07:15.158Z,8.11
2022-10-17T12:09:49.104Z,9.96
2022-10-17T12:14:53.032Z,9.42
2022-10-17T12:17:30.222Z,9.38
2022-10-17T12:20:29.174Z,9.64
2022-10-17T12:23:14.518Z,9.37
2022-10-17T12:28:28.487Z,8.62
2022-10-17T12:31:00.067Z,8.69
2022-10-17T12:33:39.838Z,9.21
2022-10-17T12:36:45.621Z,8.56
2022-10-17T12:39:47.457Z,8.42
2022-10-17T12:42:31.678Z,8.45
2022-10-17T12:44:59.411Z,8.47
2022-10-17T12:47:38.274Z,8.80
2022-10-17T12:50:44.356Z,8.93
2022-10-17T12:53:19.416Z,9.70
2022-10-17T12:55:46.395Z,8.98
2022-10-17T12:58:19.153Z,9.15
2022-10-17T13:01:11.540Z,9.43
2022-10-17T13:03:45.036Z,8.93
2022-10-17T13:06:26.628Z,10.13
2022-10-17T13:09:03.861Z,9.81
2022-10-17T13:11:34.490Z,9.47
2022-10-17T13:14:10.126Z,9.40
2022-10-17T13:16:40.295Z,9.75
2022-10-17T13:19:17.611Z,9.36
2022-10-17T13:21:50.420Z,9.76
2022-10-17T13:26:49.619Z,9.14
2022-10-17T13:29:18.172Z,9.84
2022-10-17T13:31:46.238Z,10.88
2022-10-17T13:34:20.460Z,9.92
2022-10-17T13:36:49.107Z,10.22
2022-10-17T13:39:32.597Z,9.53
2022-10-17T13:42:19.997Z,9.33
2022-10-17T13:44:47.356Z,8.96
2022-10-17T13:47:22.099Z,8.45
2022-10-17T13:49:55.357Z,9.32
2022-10-17T13:52:26.947Z,8.81
2022-10-17T13:54:54.969Z,8.89
2022-10-17T13:57:25.820Z,9.42
2022-10-17T13:59:55.645Z,9.42
2022-10-17T14:02:33.658Z,9.14
2022-10-17T14:05:20.151Z,9.08
2022-10-17T14:10:43.395Z,9.71
2022-10-17T14:13:27.009Z,8.81
2022-10-17T14:15:56.168Z,8.36
2022-10-17T14:18:34.900Z,9.52
2022-10-17T14:24:13.756Z,8.98
2022-10-17T14:26:48.453Z,9.11
2022-10-17T14:29:27.342Z,9.00
2022-10-17T14:32:06.106Z,9.18
2022-10-17T14:34:37.451Z,9.31
2022-10-17T14:37:12.216Z,8.71
2022-10-17T14:39:42.637Z,8.95
2022-10-17T14:42:19.371Z,9.62
2022-10-17T14:44:50.098Z,9.03
2022-10-17T14:47:44.103Z,9.79
2022-10-17T14:50:26.529Z,9.57
2022-10-17T14:53:35.751Z,9.83
2022-10-17T14:56:20.840Z,9.79
2022-10-17T14:58:47.790Z,10.12
2022-10-17T15:01:16.841Z,10.86
2022-10-17T15:03:45.586Z,10.34
2022-10-17T15:06:18.959Z,9.71
2022-10-17T15:08:46.031Z,10.02
2022-10-17T15:11:18.529Z,9.59
2022-10-17T15:13:47.558Z,10.65
2022-10-17T15:16:18.877Z,10.87
2022-10-17T15:18:46.004Z,10.87
2022-10-17T15:21:33.689Z,11.20
2022-10-17T15:24:13.747Z,10.21
2022-10-17T15:26:55.600Z,11.28
2022-10-17T15:29:22.686Z,10.91
2022-10-17T15:34:25.187Z,11.22
2022-10-17T15:36:55.227Z,11.11
2022-10-17T15:39:29.799Z,11.95
2022-10-17T15:42:13.488Z,11.64
2022-10-17T15:44:47.292Z,11.30
2022-10-17T15:47:31.948Z,11.76
2022-10-17T15:50:00.421Z,11.21
2022-10-17T15:52:34.446Z,8.49
2022-10-17T15:55:05.185Z,6.91
2022-10-17T15:57:46.585Z,5.58
2022-10-17T16:00:17.067Z,5.07
2022-10-17T16:02:53.479Z,5.26
2022-10-17T16:05:25.064Z,5.22
2022-10-17T16:07:59.960Z,5.13
2022-10-17T16:10:28.706Z,4.80
2022-10-17T16:13:00.622Z,4.84
2022-10-17T16:16:04.730Z,3.52
2022-10-17T16:18:32.734Z,5.83
2022-10-17T16:20:59.630Z,5.04
2022-10-17T16:23:27.405Z,4.98
2022-10-17T16:25:54.357Z,4.61
2022-10-17T16:28:25.505Z,4.96
2022-10-17T16:30:52.410Z,5.39
2022-10-17T16:33:20.857Z,5.58
2022-10-17T16:35:47.700Z,5.55
2022-10-17T16:38:15.709Z,5.38
2022-10-17T16:40:42.664Z,5.03
2022-10-17T16:43:15.591Z,4.32
2022-10-17T16:45:43.640Z,4.45
2022-10-17T16:48:11.854Z,4.27
2022-10-17T16:50:46.398Z,4.83
2022-10-17T16:53:15.447Z,6.04
2022-10-17T16:55:42.251Z,5.16
2022-10-17T16:58:09.291Z,5.12
2022-10-17T17:00:36.470Z,6.11
2022-10-17T17:03:03.462Z,5.90
2022-10-17T17:05:30.401Z,4.43
2022-10-17T17:07:58.606Z,4.30
2022-10-17T17:10:25.590Z,4.52
2022-10-17T17:12:52.435Z,4.25
2022-10-17T17:15:20.311Z,5.04
2022-10-17T17:17:53.628Z,4.50
2022-10-17T17:20:25.380Z,4.18
2022-10-17T17:22:52.440Z,4.23
2022-10-17T17:25:36.993Z,4.25
2022-10-17T17:28:04.169Z,5.04
2022-10-17T17:30:32.460Z,4.57
2022-10-17T17:32:59.414Z,5.15
2022-10-17T17:35:29.022Z,4.32
2022-10-17T17:37:56.047Z,4.80
2022-10-17T17:40:24.141Z,5.54
2022-10-17T17:42:54.301Z,6.11
2022-10-17T17:45:21.791Z,5.17
2022-10-17T17:47:48.805Z,5.11
2022-10-17T17:50:15.989Z,5.21
2022-10-17T17:52:42.806Z,5.03
2022-10-17T17:55:09.758Z,5.64
2022-10-17T17:57:36.783Z,5.61
2022-10-17T18:00:06.237Z,6.44
2022-10-17T18:02:35.204Z,6.74
2022-10-17T18:05:02.357Z,6.92
2022-10-17T18:07:29.398Z,6.78
2022-10-17T18:09:56.241Z,5.70
2022-10-17T18:12:23.864Z,5.94
2022-10-17T18:14:50.738Z,6.59
2022-10-17T18:17:18.874Z,7.12
2022-10-17T18:19:46.764Z,6.24
2022-10-17T18:22:13.635Z,7.04
2022-10-17T18:24:41.677Z,7.71
2022-10-17T18:27:08.566Z,6.34
2022-10-17T18:29:35.720Z,6.38
2022-10-17T18:32:02.757Z,6.11
2022-10-17T18:34:31.599Z,6.56
2022-10-17T18:36:58.789Z,7.75
2022-10-17T18:39:25.788Z,6.83
2022-10-17T18:41:55.143Z,7.01
2022-10-17T18:44:23.047Z,6.34
2022-10-17T18:46:49.976Z,6.17
2022-10-17T18:49:19.424Z,5.59
2022-10-17T18:51:47.721Z,5.66
2022-10-17T18:54:17.382Z,5.98
2022-10-17T18:56:45.210Z,6.28
2022-10-17T18:59:13.629Z,6.30
2022-10-17T19:01:40.513Z,7.04
2022-10-17T19:04:08.868Z,6.67
2022-10-17T19:06:35.983Z,6.64
2022-10-17T19:09:06.877Z,7.09
2022-10-17T19:11:36.790Z,6.69
2022-10-17T19:14:05.507Z,6.66
2022-10-17T19:16:35.085Z,7.19
2022-10-17T19:19:05.051Z,7.13
2022-10-17T19:21:34.938Z,7.25
2022-10-17T19:24:06.100Z,7.89
2022-10-17T19:26:36.322Z,8.12
2022-10-17T19:29:04.685Z,8.14
2022-10-17T19:31:33.712Z,7.76
2022-10-17T19:34:01.327Z,6.99
2022-10-17T19:36:33.340Z,6.56
2022-10-17T19:39:01.658Z,6.85
2022-10-17T19:41:31.730Z,7.44
2022-10-17T19:44:00.109Z,8.68
2022-10-17T19:46:28.825Z,8.14
2022-10-17T19:48:56.070Z,8.92
2022-10-17T19:51:24.215Z,8.48
2022-10-17T19:53:51.790Z,8.12
2022-10-17T19:56:21.808Z,7.18
2022-10-17T19:58:53.410Z,7.75
2022-10-17T20:01:21.968Z,8.86
2022-10-17T20:03:49.569Z,9.55
2022-10-17T20:06:17.431Z,8.81
2022-10-17T20:08:45.473Z,8.88
2022-10-17T20:11:13.981Z,8.68
2022-10-17T20:13:41.730Z,8.80
2022-10-17T20:16:13.922Z,9.00
2022-10-17T20:18:42.518Z,8.13
2022-10-17T20:21:12.347Z,7.92
2022-10-17T20:23:40.261Z,8.28
2022-10-17T20:26:33.170Z,8.42
2022-10-17T20:29:00.974Z,7.20
2022-10-17T20:31:29.920Z,7.55
2022-10-17T20:33:57.617Z,8.45
2022-10-17T20:36:24.721Z,9.22
2022-10-17T20:38:55.402Z,9.01
2022-10-17T20:41:23.397Z,8.00
2022-10-17T20:43:51.492Z,8.08
2022-10-17T20:46:35.033Z,7.17
2022-10-17T20:49:05.395Z,8.12
2022-10-17T20:51:32.753Z,9.03
2022-10-17T20:53:59.803Z,9.39
2022-10-17T20:56:28.172Z,11.71
2022-10-17T20:58:57.352Z,12.03
2022-10-17T21:01:26.096Z,10.53
2022-10-17T21:03:53.350Z,11.23
2022-10-17T21:06:25.111Z,9.52
2022-10-17T21:08:53.176Z,10.39
2022-10-17T21:11:24.447Z,10.18
2022-10-17T21:13:55.048Z,9.80
2022-10-17T21:16:22.491Z,9.23
2022-10-17T21:18:49.495Z,9.23
2022-10-17T21:21:20.231Z,9.13
2022-10-17T21:23:51.549Z,9.92
2022-10-17T21:26:19.138Z,9.59
2022-10-17T21:28:47.165Z,9.56
2022-10-17T21:31:16.248Z,7.86
2022-10-17T21:33:45.983Z,8.33
2022-10-17T21:36:13.511Z,9.00
2022-10-17T21:38:40.901Z,8.50
2022-10-17T21:41:11.303Z,10.43
2022-10-17T21:43:39.541Z,10.37
2022-10-17T21:46:09.262Z,10.17
2022-10-17T21:48:36.261Z,10.60
2022-10-17T21:51:06.761Z,9.65
2022-10-17T21:53:35.607Z,9.20
2022-10-17T21:56:04.274Z,9.18
2022-10-17T21:58:33.132Z,8.97
2022-10-17T22:01:05.421Z,9.42
2022-10-17T22:03:33.803Z,8.51
2022-10-17T22:06:12.710Z,8.86
2022-10-17T22:08:48.035Z,8.03
2022-10-17T22:11:19.899Z,9.18
2022-10-17T22:13:48.815Z,8.86
2022-10-17T22:16:16.531Z,8.80
2022-10-17T22:18:43.450Z,8.30
2022-10-17T22:21:12.279Z,8.78
2022-10-17T22:23:40.685Z,16.41
2022-10-17T22:26:08.458Z,12.52
2022-10-17T22:28:38.324Z,9.86
2022-10-17T22:31:07.840Z,8.78
2022-10-17T22:33:36.343Z,8.16
2022-10-17T22:36:03.853Z,7.49
2022-10-17T22:38:31.151Z,7.52
2022-10-17T22:40:58.120Z,7.34
2022-10-17T22:43:25.558Z,6.81
2022-10-17T22:45:52.904Z,7.95
2022-10-17T22:48:21.391Z,8.09
2022-10-17T22:50:48.531Z,7.29
2022-10-17T22:53:15.758Z,7.04
2022-10-17T22:55:43.679Z,7.38
2022-10-17T22:58:10.711Z,8.10
2022-10-17T23:00:39.011Z,7.65
2022-10-17T23:03:05.811Z,7.71
2022-10-17T23:05:34.642Z,8.64
2022-10-17T23:08:02.167Z,8.43
2022-10-17T23:10:30.058Z,8.63
2022-10-17T23:12:57.687Z,8.95
2022-10-17T23:15:24.674Z,9.34
2022-10-17T23:17:51.472Z,8.74
2022-10-17T23:20:20.255Z,8.60
2022-10-17T23:22:48.541Z,8.94
2022-10-17T23:25:16.004Z,8.75
2022-10-17T23:27:42.859Z,8.21
2022-10-17T23:30:10.533Z,8.71
2022-10-17T23:32:37.494Z,8.08
2022-10-17T23:35:06.772Z,7.14
2022-10-17T23:37:33.969Z,6.11
2022-10-17T23:40:05.263Z,5.85
2022-10-17T23:42:32.465Z,6.08
2022-10-17T23:44:59.471Z,5.68
2022-10-17T23:47:26.375Z,5.82
2022-10-17T23:49:53.258Z,6.23
2022-10-17T23:52:20.245Z,6.15
2022-10-17T23:54:46.968Z,6.29
2022-10-17T23:57:17.345Z,6.79
2022-10-17T23:59:44.171Z,7.00
